sensor_id;sensor_type;location;lat;lon;timestamp;P1;durP1;ratioP1;P2;durP2;ratioP2
9328;SDS011;4703;48.748;19.142;2022-12-18T00:01:25;10.13;;;6.80;;
9328;SDS011;4703;48.748;19.142;2022-12-18T00:03:57;8.70;;;5.93;;
9328;SDS011;4703;48.748;19.142;2022-12-18T00:06:26;12.30;;;6.60;;
9328;SDS011;4703;48.748;19.142;2022-12-18T00:08:56;8.60;;;6.50;;
9328;SDS011;4703;48.748;19.142;2022-12-18T00:11:25;8.50;;;6.60;;
9328;SDS011;4703;48.748;19.142;2022-12-18T00:13:55;9.27;;;6.77;;
9328;SDS011;4703;48.748;19.142;2022-12-18T00:16:25;11.03;;;5.97;;
9328;SDS011;4703;48.748;19.142;2022-12-18T00:18:56;10.80;;;6.47;;
9328;SDS011;4703;48.748;19.142;2022-12-18T00:21:23;11.93;;;7.10;;
9328;SDS011;4703;48.748;19.142;2022-12-18T00:23:51;10.67;;;7.00;;
9328;SDS011;4703;48.748;19.142;2022-12-18T00:26:22;10.20;;;6.80;;
9328;SDS011;4703;48.748;19.142;2022-12-18T00:28:52;8.93;;;6.77;;
9328;SDS011;4703;48.748;19.142;2022-12-18T00:31:20;9.90;;;6.70;;
9328;SDS011;4703;48.748;19.142;2022-12-18T00:33:51;9.97;;;6.90;;
9328;SDS011;4703;48.748;19.142;2022-12-18T00:36:22;10.90;;;6.50;;
9328;SDS011;4703;48.748;19.142;2022-12-18T00:38:53;8.20;;;6.20;;
9328;SDS011;4703;48.748;19.142;2022-12-18T00:41:21;10.73;;;5.87;;
9328;SDS011;4703;48.748;19.142;2022-12-18T00:44:09;11.83;;;6.90;;
9328;SDS011;4703;48.748;19.142;2022-12-18T00:46:38;9.23;;;5.47;;
9328;SDS011;4703;48.748;19.142;2022-12-18T00:49:07;11.40;;;7.13;;
9328;SDS011;4703;48.748;19.142;2022-12-18T00:51:34;12.27;;;7.47;;
9328;SDS011;4703;48.748;19.142;2022-12-18T00:54:01;7.73;;;6.23;;
9328;SDS011;4703;48.748;19.142;2022-12-18T00:56:28;9.27;;;6.10;;
9328;SDS011;4703;48.748;19.142;2022-12-18T00:58:55;8.13;;;6.47;;
9328;SDS011;4703;48.748;19.142;2022-12-18T01:01:22;10.47;;;6.63;;
9328;SDS011;4703;48.748;19.142;2022-12-18T01:03:50;8.33;;;6.40;;
9328;SDS011;4703;48.748;19.142;2022-12-18T01:06:23;13.13;;;6.60;;
9328;SDS011;4703;48.748;19.142;2022-12-18T01:08:50;8.40;;;6.23;;
9328;SDS011;4703;48.748;19.142;2022-12-18T01:11:18;11.33;;;6.93;;
9328;SDS011;4703;48.748;19.142;2022-12-18T01:13:46;8.70;;;6.40;;
9328;SDS011;4703;48.748;19.142;2022-12-18T01:16:15;9.10;;;6.77;;
9328;SDS011;4703;48.748;19.142;2022-12-18T01:18:44;11.60;;;7.70;;
9328;SDS011;4703;48.748;19.142;2022-12-18T01:21:13;7.30;;;5.93;;
9328;SDS011;4703;48.748;19.142;2022-12-18T01:23:42;9.57;;;6.00;;
9328;SDS011;4703;48.748;19.142;2022-12-18T01:26:10;9.27;;;6.57;;
9328;SDS011;4703;48.748;19.142;2022-12-18T01:28:41;7.20;;;6.20;;
9328;SDS011;4703;48.748;19.142;2022-12-18T01:31:14;9.40;;;6.33;;
9328;SDS011;4703;48.748;19.142;2022-12-18T01:33:47;12.37;;;7.80;;
9328;SDS011;4703;48.748;19.142;2022-12-18T01:36:17;9.37;;;6.40;;
9328;SDS011;4703;48.748;19.142;2022-12-18T01:38:53;8.07;;;6.20;;
9328;SDS011;4703;48.748;19.142;2022-12-18T01:41:22;9.10;;;5.73;;
9328;SDS011;4703;48.748;19.142;2022-12-18T01:43:53;7.50;;;6.00;;
9328;SDS011;4703;48.748;19.142;2022-12-18T01:46:23;6.73;;;4.70;;
9328;SDS011;4703;48.748;19.142;2022-12-18T01:48:59;9.10;;;5.13;;
9328;SDS011;4703;48.748;19.142;2022-12-18T01:51:27;7.27;;;5.57;;
9328;SDS011;4703;48.748;19.142;2022-12-18T01:53:57;9.10;;;5.93;;
9328;SDS011;4703;48.748;19.142;2022-12-18T01:56:25;8.40;;;5.80;;
9328;SDS011;4703;48.748;19.142;2022-12-18T02:01:31;11.33;;;6.50;;
9328;SDS011;4703;48.748;19.142;2022-12-18T02:07:03;10.27;;;6.77;;
9328;SDS011;4703;48.748;19.142;2022-12-18T02:09:44;10.20;;;7.00;;
9328;SDS011;4703;48.748;19.142;2022-12-18T02:12:21;8.40;;;5.67;;
9328;SDS011;4703;48.748;19.142;2022-12-18T02:17:47;9.73;;;5.60;;
9328;SDS011;4703;48.748;19.142;2022-12-18T02:21:08;7.90;;;5.30;;
9328;SDS011;4703;48.748;19.142;2022-12-18T02:23:55;6.47;;;5.10;;
9328;SDS011;4703;48.748;19.142;2022-12-18T02:26:56;8.20;;;6.40;;
9328;SDS011;4703;48.748;19.142;2022-12-18T02:29:36;6.63;;;4.50;;
9328;SDS011;4703;48.748;19.142;2022-12-18T02:32:24;10.40;;;5.90;;
9328;SDS011;4703;48.748;19.142;2022-12-18T02:34:55;7.13;;;4.97;;
9328;SDS011;4703;48.748;19.142;2022-12-18T02:37:23;8.47;;;4.60;;
9328;SDS011;4703;48.748;19.142;2022-12-18T02:39:53;6.97;;;4.57;;
9328;SDS011;4703;48.748;19.142;2022-12-18T02:42:23;6.97;;;4.93;;
9328;SDS011;4703;48.748;19.142;2022-12-18T02:44:51;7.07;;;4.50;;
9328;SDS011;4703;48.748;19.142;2022-12-18T02:47:19;9.90;;;5.87;;
9328;SDS011;4703;48.748;19.142;2022-12-18T02:52:31;8.73;;;5.03;;
9328;SDS011;4703;48.748;19.142;2022-12-18T02:58:20;7.90;;;4.77;;
9328;SDS011;4703;48.748;19.142;2022-12-18T03:01:21;9.57;;;5.07;;
9328;SDS011;4703;48.748;19.142;2022-12-18T03:06:41;12.90;;;5.80;;
9328;SDS011;4703;48.748;19.142;2022-12-18T03:09:14;9.67;;;5.80;;
9328;SDS011;4703;48.748;19.142;2022-12-18T03:11:50;8.13;;;5.63;;
9328;SDS011;4703;48.748;19.142;2022-12-18T03:14:50;9.30;;;5.20;;
9328;SDS011;4703;48.748;19.142;2022-12-18T03:17:26;7.60;;;4.83;;
9328;SDS011;4703;48.748;19.142;2022-12-18T03:19:55;11.80;;;6.73;;
9328;SDS011;4703;48.748;19.142;2022-12-18T03:22:25;9.60;;;6.10;;
9328;SDS011;4703;48.748;19.142;2022-12-18T03:24:56;7.17;;;4.50;;
9328;SDS011;4703;48.748;19.142;2022-12-18T03:27:26;10.07;;;5.20;;
9328;SDS011;4703;48.748;19.142;2022-12-18T03:30:08;7.87;;;5.30;;
9328;SDS011;4703;48.748;19.142;2022-12-18T03:32:46;7.87;;;5.37;;
9328;SDS011;4703;48.748;19.142;2022-12-18T03:35:29;6.90;;;4.30;;
9328;SDS011;4703;48.748;19.142;2022-12-18T03:38:02;8.80;;;5.43;;
9328;SDS011;4703;48.748;19.142;2022-12-18T03:40:35;8.73;;;5.90;;
9328;SDS011;4703;48.748;19.142;2022-12-18T03:46:24;9.83;;;5.27;;
9328;SDS011;4703;48.748;19.142;2022-12-18T03:52:13;7.13;;;4.80;;
9328;SDS011;4703;48.748;19.142;2022-12-18T03:54:49;7.10;;;5.30;;
9328;SDS011;4703;48.748;19.142;2022-12-18T03:57:21;5.60;;;4.13;;
9328;SDS011;4703;48.748;19.142;2022-12-18T04:00:00;5.30;;;3.97;;
9328;SDS011;4703;48.748;19.142;2022-12-18T04:02:38;5.23;;;4.03;;
9328;SDS011;4703;48.748;19.142;2022-12-18T04:05:10;6.10;;;4.90;;
9328;SDS011;4703;48.748;19.142;2022-12-18T04:07:38;9.87;;;5.83;;
9328;SDS011;4703;48.748;19.142;2022-12-18T04:10:06;7.47;;;5.27;;
9328;SDS011;4703;48.748;19.142;2022-12-18T04:12:36;9.03;;;5.30;;
9328;SDS011;4703;48.748;19.142;2022-12-18T04:15:04;7.03;;;4.70;;
9328;SDS011;4703;48.748;19.142;2022-12-18T04:17:32;7.37;;;4.70;;
9328;SDS011;4703;48.748;19.142;2022-12-18T04:19:59;11.30;;;5.67;;
9328;SDS011;4703;48.748;19.142;2022-12-18T04:22:27;8.50;;;6.13;;
9328;SDS011;4703;48.748;19.142;2022-12-18T04:24:54;11.23;;;5.73;;
9328;SDS011;4703;48.748;19.142;2022-12-18T04:27:21;8.23;;;5.00;;
9328;SDS011;4703;48.748;19.142;2022-12-18T04:29:48;9.27;;;4.67;;
9328;SDS011;4703;48.748;19.142;2022-12-18T04:32:15;5.43;;;4.00;;
9328;SDS011;4703;48.748;19.142;2022-12-18T04:34:42;7.30;;;4.73;;
9328;SDS011;4703;48.748;19.142;2022-12-18T04:37:10;5.67;;;4.13;;
9328;SDS011;4703;48.748;19.142;2022-12-18T04:39:37;6.63;;;4.07;;
9328;SDS011;4703;48.748;19.142;2022-12-18T04:42:05;7.80;;;4.30;;
9328;SDS011;4703;48.748;19.142;2022-12-18T04:44:32;8.67;;;4.60;;
9328;SDS011;4703;48.748;19.142;2022-12-18T04:46:59;6.90;;;3.87;;
9328;SDS011;4703;48.748;19.142;2022-12-18T04:49:26;8.67;;;4.80;;
9328;SDS011;4703;48.748;19.142;2022-12-18T04:51:54;6.00;;;4.40;;
9328;SDS011;4703;48.748;19.142;2022-12-18T04:54:21;7.90;;;5.37;;
9328;SDS011;4703;48.748;19.142;2022-12-18T04:56:49;7.90;;;4.50;;
9328;SDS011;4703;48.748;19.142;2022-12-18T04:59:16;9.30;;;5.30;;
9328;SDS011;4703;48.748;19.142;2022-12-18T05:01:44;8.47;;;4.80;;
9328;SDS011;4703;48.748;19.142;2022-12-18T05:04:12;7.50;;;4.30;;
9328;SDS011;4703;48.748;19.142;2022-12-18T05:06:39;9.60;;;5.03;;
9328;SDS011;4703;48.748;19.142;2022-12-18T05:09:06;7.73;;;4.97;;
9328;SDS011;4703;48.748;19.142;2022-12-18T05:11:34;7.60;;;3.93;;
9328;SDS011;4703;48.748;19.142;2022-12-18T05:14:02;6.10;;;4.47;;
9328;SDS011;4703;48.748;19.142;2022-12-18T05:16:29;6.70;;;3.90;;
9328;SDS011;4703;48.748;19.142;2022-12-18T05:18:56;6.47;;;3.90;;
9328;SDS011;4703;48.748;19.142;2022-12-18T05:21:23;4.77;;;3.90;;
9328;SDS011;4703;48.748;19.142;2022-12-18T05:23:50;13.17;;;5.97;;
9328;SDS011;4703;48.748;19.142;2022-12-18T05:26:17;8.23;;;4.40;;
9328;SDS011;4703;48.748;19.142;2022-12-18T05:28:45;5.60;;;3.80;;
9328;SDS011;4703;48.748;19.142;2022-12-18T05:31:13;8.97;;;4.37;;
9328;SDS011;4703;48.748;19.142;2022-12-18T05:33:40;7.53;;;4.33;;
9328;SDS011;4703;48.748;19.142;2022-12-18T05:36:09;7.13;;;4.40;;
9328;SDS011;4703;48.748;19.142;2022-12-18T05:38:37;8.93;;;5.60;;
9328;SDS011;4703;48.748;19.142;2022-12-18T05:41:05;8.77;;;5.33;;
9328;SDS011;4703;48.748;19.142;2022-12-18T05:43:34;10.07;;;5.73;;
9328;SDS011;4703;48.748;19.142;2022-12-18T05:46:07;10.57;;;5.73;;
9328;SDS011;4703;48.748;19.142;2022-12-18T05:48:39;13.77;;;5.87;;
9328;SDS011;4703;48.748;19.142;2022-12-18T05:51:07;11.27;;;5.90;;
9328;SDS011;4703;48.748;19.142;2022-12-18T05:53:37;10.73;;;6.50;;
9328;SDS011;4703;48.748;19.142;2022-12-18T05:56:11;9.10;;;6.27;;
9328;SDS011;4703;48.748;19.142;2022-12-18T05:58:43;9.20;;;6.07;;
9328;SDS011;4703;48.748;19.142;2022-12-18T06:01:12;9.60;;;5.00;;
9328;SDS011;4703;48.748;19.142;2022-12-18T06:03:46;10.23;;;5.27;;
9328;SDS011;4703;48.748;19.142;2022-12-18T06:06:14;12.90;;;7.27;;
9328;SDS011;4703;48.748;19.142;2022-12-18T06:08:53;11.20;;;5.93;;
9328;SDS011;4703;48.748;19.142;2022-12-18T06:11:22;9.93;;;6.43;;
9328;SDS011;4703;48.748;19.142;2022-12-18T06:13:52;10.80;;;6.40;;
9328;SDS011;4703;48.748;19.142;2022-12-18T06:16:24;9.13;;;5.67;;
9328;SDS011;4703;48.748;19.142;2022-12-18T06:18:53;12.00;;;6.30;;
9328;SDS011;4703;48.748;19.142;2022-12-18T06:21:22;9.57;;;5.33;;
9328;SDS011;4703;48.748;19.142;2022-12-18T06:23:50;6.60;;;5.13;;
9328;SDS011;4703;48.748;19.142;2022-12-18T06:26:17;9.23;;;5.93;;
9328;SDS011;4703;48.748;19.142;2022-12-18T06:28:52;10.33;;;5.60;;
9328;SDS011;4703;48.748;19.142;2022-12-18T06:31:20;14.10;;;6.93;;
9328;SDS011;4703;48.748;19.142;2022-12-18T06:33:47;12.10;;;6.20;;
9328;SDS011;4703;48.748;19.142;2022-12-18T06:36:14;11.00;;;6.50;;
9328;SDS011;4703;48.748;19.142;2022-12-18T06:38:43;9.00;;;4.83;;
9328;SDS011;4703;48.748;19.142;2022-12-18T06:41:11;4.83;;;4.33;;
9328;SDS011;4703;48.748;19.142;2022-12-18T06:43:41;6.40;;;4.73;;
9328;SDS011;4703;48.748;19.142;2022-12-18T06:46:10;6.87;;;4.40;;
9328;SDS011;4703;48.748;19.142;2022-12-18T06:48:38;6.93;;;4.60;;
9328;SDS011;4703;48.748;19.142;2022-12-18T06:51:05;8.27;;;4.70;;
9328;SDS011;4703;48.748;19.142;2022-12-18T06:53:32;5.80;;;3.60;;
9328;SDS011;4703;48.748;19.142;2022-12-18T06:56:04;8.00;;;4.13;;
9328;SDS011;4703;48.748;19.142;2022-12-18T06:58:35;10.03;;;5.77;;
9328;SDS011;4703;48.748;19.142;2022-12-18T07:01:04;6.63;;;4.37;;
9328;SDS011;4703;48.748;19.142;2022-12-18T07:03:33;6.97;;;4.50;;
9328;SDS011;4703;48.748;19.142;2022-12-18T07:06:01;5.67;;;3.97;;
9328;SDS011;4703;48.748;19.142;2022-12-18T07:08:28;7.17;;;4.10;;
9328;SDS011;4703;48.748;19.142;2022-12-18T07:10:56;7.27;;;4.43;;
9328;SDS011;4703;48.748;19.142;2022-12-18T07:13:24;7.37;;;4.63;;
9328;SDS011;4703;48.748;19.142;2022-12-18T07:15:52;7.67;;;4.80;;
9328;SDS011;4703;48.748;19.142;2022-12-18T07:18:20;10.53;;;4.87;;
9328;SDS011;4703;48.748;19.142;2022-12-18T07:20:47;7.07;;;5.67;;
9328;SDS011;4703;48.748;19.142;2022-12-18T07:23:14;9.60;;;4.80;;
9328;SDS011;4703;48.748;19.142;2022-12-18T07:25:41;7.53;;;4.70;;
9328;SDS011;4703;48.748;19.142;2022-12-18T07:28:08;10.13;;;5.20;;
9328;SDS011;4703;48.748;19.142;2022-12-18T07:30:42;10.00;;;6.07;;
9328;SDS011;4703;48.748;19.142;2022-12-18T07:33:09;8.00;;;6.00;;
9328;SDS011;4703;48.748;19.142;2022-12-18T07:35:37;10.80;;;7.10;;
9328;SDS011;4703;48.748;19.142;2022-12-18T07:38:04;8.63;;;5.50;;
9328;SDS011;4703;48.748;19.142;2022-12-18T07:40:32;9.30;;;5.53;;
9328;SDS011;4703;48.748;19.142;2022-12-18T07:42:59;14.33;;;7.07;;
9328;SDS011;4703;48.748;19.142;2022-12-18T07:45:27;11.23;;;7.33;;
9328;SDS011;4703;48.748;19.142;2022-12-18T07:47:57;9.73;;;6.60;;
9328;SDS011;4703;48.748;19.142;2022-12-18T07:50:24;15.07;;;6.87;;
9328;SDS011;4703;48.748;19.142;2022-12-18T07:52:51;9.77;;;7.17;;
9328;SDS011;4703;48.748;19.142;2022-12-18T07:55:21;10.00;;;6.13;;
9328;SDS011;4703;48.748;19.142;2022-12-18T07:57:48;9.30;;;5.83;;
9328;SDS011;4703;48.748;19.142;2022-12-18T08:00:20;11.47;;;6.37;;
9328;SDS011;4703;48.748;19.142;2022-12-18T08:02:47;11.50;;;5.67;;
9328;SDS011;4703;48.748;19.142;2022-12-18T08:05:14;11.00;;;5.87;;
9328;SDS011;4703;48.748;19.142;2022-12-18T08:07:42;9.10;;;5.23;;
9328;SDS011;4703;48.748;19.142;2022-12-18T08:10:09;7.63;;;5.17;;
9328;SDS011;4703;48.748;19.142;2022-12-18T08:12:37;9.07;;;5.93;;
9328;SDS011;4703;48.748;19.142;2022-12-18T08:15:04;8.50;;;5.83;;
9328;SDS011;4703;48.748;19.142;2022-12-18T08:17:32;5.83;;;4.37;;
9328;SDS011;4703;48.748;19.142;2022-12-18T08:20:00;8.67;;;6.47;;
9328;SDS011;4703;48.748;19.142;2022-12-18T08:22:27;13.33;;;7.20;;
9328;SDS011;4703;48.748;19.142;2022-12-18T08:24:54;7.73;;;6.00;;
9328;SDS011;4703;48.748;19.142;2022-12-18T08:27:22;8.50;;;6.00;;
9328;SDS011;4703;48.748;19.142;2022-12-18T08:29:57;4.33;;;3.60;;
9328;SDS011;4703;48.748;19.142;2022-12-18T08:32:25;7.50;;;4.90;;
9328;SDS011;4703;48.748;19.142;2022-12-18T08:34:53;11.07;;;5.23;;
9328;SDS011;4703;48.748;19.142;2022-12-18T08:37:20;6.77;;;4.80;;
9328;SDS011;4703;48.748;19.142;2022-12-18T08:39:47;9.07;;;5.50;;
9328;SDS011;4703;48.748;19.142;2022-12-18T08:42:14;9.10;;;5.73;;
9328;SDS011;4703;48.748;19.142;2022-12-18T08:45:00;10.90;;;6.37;;
9328;SDS011;4703;48.748;19.142;2022-12-18T08:47:28;9.47;;;5.43;;
9328;SDS011;4703;48.748;19.142;2022-12-18T08:49:55;9.23;;;6.57;;
9328;SDS011;4703;48.748;19.142;2022-12-18T08:52:21;9.63;;;7.13;;
9328;SDS011;4703;48.748;19.142;2022-12-18T08:54:49;10.30;;;8.20;;
9328;SDS011;4703;48.748;19.142;2022-12-18T08:57:16;13.63;;;8.13;;
9328;SDS011;4703;48.748;19.142;2022-12-18T08:59:43;11.27;;;7.03;;
9328;SDS011;4703;48.748;19.142;2022-12-18T09:02:10;8.30;;;6.57;;
9328;SDS011;4703;48.748;19.142;2022-12-18T09:04:38;9.73;;;6.77;;
9328;SDS011;4703;48.748;19.142;2022-12-18T09:07:06;9.57;;;6.00;;
9328;SDS011;4703;48.748;19.142;2022-12-18T09:09:33;9.43;;;5.60;;
9328;SDS011;4703;48.748;19.142;2022-12-18T09:12:00;7.80;;;5.73;;
9328;SDS011;4703;48.748;19.142;2022-12-18T09:14:27;6.60;;;5.30;;
9328;SDS011;4703;48.748;19.142;2022-12-18T09:16:54;5.87;;;5.27;;
9328;SDS011;4703;48.748;19.142;2022-12-18T09:19:21;11.03;;;6.07;;
9328;SDS011;4703;48.748;19.142;2022-12-18T09:21:48;11.67;;;7.27;;
9328;SDS011;4703;48.748;19.142;2022-12-18T09:24:15;8.90;;;6.80;;
9328;SDS011;4703;48.748;19.142;2022-12-18T09:26:42;10.27;;;6.73;;
9328;SDS011;4703;48.748;19.142;2022-12-18T09:29:12;10.43;;;7.43;;
9328;SDS011;4703;48.748;19.142;2022-12-18T09:31:44;7.27;;;6.20;;
9328;SDS011;4703;48.748;19.142;2022-12-18T09:34:11;10.03;;;6.30;;
9328;SDS011;4703;48.748;19.142;2022-12-18T09:36:38;9.03;;;7.03;;
9328;SDS011;4703;48.748;19.142;2022-12-18T09:39:05;7.70;;;6.57;;
9328;SDS011;4703;48.748;19.142;2022-12-18T09:41:47;9.10;;;6.73;;
9328;SDS011;4703;48.748;19.142;2022-12-18T09:44:32;8.57;;;7.17;;
9328;SDS011;4703;48.748;19.142;2022-12-18T09:49:56;8.03;;;5.83;;
9328;SDS011;4703;48.748;19.142;2022-12-18T09:52:37;8.50;;;6.37;;
9328;SDS011;4703;48.748;19.142;2022-12-18T09:55:28;8.97;;;6.93;;
9328;SDS011;4703;48.748;19.142;2022-12-18T10:00:47;7.97;;;6.33;;
9328;SDS011;4703;48.748;19.142;2022-12-18T10:03:14;6.60;;;5.20;;
9328;SDS011;4703;48.748;19.142;2022-12-18T10:05:52;5.20;;;4.00;;
9328;SDS011;4703;48.748;19.142;2022-12-18T10:08:46;5.40;;;4.80;;
9328;SDS011;4703;48.748;19.142;2022-12-18T10:14:29;7.73;;;6.43;;
9328;SDS011;4703;48.748;19.142;2022-12-18T10:17:15;8.17;;;6.23;;
9328;SDS011;4703;48.748;19.142;2022-12-18T10:20:40;9.20;;;7.00;;
9328;SDS011;4703;48.748;19.142;2022-12-18T10:26:13;7.00;;;6.30;;
9328;SDS011;4703;48.748;19.142;2022-12-18T10:28:40;9.60;;;6.53;;
9328;SDS011;4703;48.748;19.142;2022-12-18T10:31:22;8.70;;;6.20;;
9328;SDS011;4703;48.748;19.142;2022-12-18T10:33:51;7.50;;;5.90;;
9328;SDS011;4703;48.748;19.142;2022-12-18T10:36:22;7.70;;;6.30;;
9328;SDS011;4703;48.748;19.142;2022-12-18T10:38:50;6.20;;;5.40;;
9328;SDS011;4703;48.748;19.142;2022-12-18T10:43:51;8.10;;;6.20;;
9328;SDS011;4703;48.748;19.142;2022-12-18T10:46:51;7.07;;;5.97;;
9328;SDS011;4703;48.748;19.142;2022-12-18T10:49:36;7.20;;;5.93;;
9328;SDS011;4703;48.748;19.142;2022-12-18T10:52:20;6.03;;;5.40;;
9328;SDS011;4703;48.748;19.142;2022-12-18T10:54:57;8.30;;;6.80;;
9328;SDS011;4703;48.748;19.142;2022-12-18T10:57:29;8.00;;;6.80;;
9328;SDS011;4703;48.748;19.142;2022-12-18T11:00:01;10.97;;;7.17;;
9328;SDS011;4703;48.748;19.142;2022-12-18T11:02:48;8.67;;;7.17;;
9328;SDS011;4703;48.748;19.142;2022-12-18T11:07:55;13.67;;;7.70;;
9328;SDS011;4703;48.748;19.142;2022-12-18T11:10:37;9.13;;;7.30;;
9328;SDS011;4703;48.748;19.142;2022-12-18T11:13:20;9.77;;;6.80;;
9328;SDS011;4703;48.748;19.142;2022-12-18T11:15:49;10.33;;;8.73;;
9328;SDS011;4703;48.748;19.142;2022-12-18T11:20:59;10.97;;;6.93;;
9328;SDS011;4703;48.748;19.142;2022-12-18T11:23:34;9.27;;;7.97;;
9328;SDS011;4703;48.748;19.142;2022-12-18T11:26:04;11.70;;;8.83;;
9328;SDS011;4703;48.748;19.142;2022-12-18T11:28:36;11.20;;;7.43;;
9328;SDS011;4703;48.748;19.142;2022-12-18T11:33:48;10.50;;;7.63;;
9328;SDS011;4703;48.748;19.142;2022-12-18T11:36:57;10.53;;;7.60;;
9328;SDS011;4703;48.748;19.142;2022-12-18T11:39:35;10.17;;;8.33;;
9328;SDS011;4703;48.748;19.142;2022-12-18T11:44:57;10.20;;;8.03;;
9328;SDS011;4703;48.748;19.142;2022-12-18T11:47:38;9.33;;;7.80;;
9328;SDS011;4703;48.748;19.142;2022-12-18T11:50:17;10.23;;;8.17;;
9328;SDS011;4703;48.748;19.142;2022-12-18T11:52:51;9.07;;;7.77;;
9328;SDS011;4703;48.748;19.142;2022-12-18T11:55:31;12.20;;;8.63;;
9328;SDS011;4703;48.748;19.142;2022-12-18T12:00:46;13.50;;;10.33;;
9328;SDS011;4703;48.748;19.142;2022-12-18T12:09:51;12.37;;;9.17;;
9328;SDS011;4703;48.748;19.142;2022-12-18T12:12:41;11.27;;;8.57;;
9328;SDS011;4703;48.748;19.142;2022-12-18T12:31:04;10.50;;;8.80;;
9328;SDS011;4703;48.748;19.142;2022-12-18T12:33:53;13.40;;;7.90;;
9328;SDS011;4703;48.748;19.142;2022-12-18T12:40:14;7.90;;;6.03;;
9328;SDS011;4703;48.748;19.142;2022-12-18T12:43:10;8.00;;;6.33;;
9328;SDS011;4703;48.748;19.142;2022-12-18T12:46:05;10.20;;;8.20;;
9328;SDS011;4703;48.748;19.142;2022-12-18T12:51:18;7.27;;;6.53;;
9328;SDS011;4703;48.748;19.142;2022-12-18T12:53:53;20.83;;;13.33;;
9328;SDS011;4703;48.748;19.142;2022-12-18T12:56:24;56.03;;;33.33;;
9328;SDS011;4703;48.748;19.142;2022-12-18T12:59:37;17.70;;;10.53;;
9328;SDS011;4703;48.748;19.142;2022-12-18T13:02:35;8.53;;;7.30;;
9328;SDS011;4703;48.748;19.142;2022-12-18T13:08:25;10.83;;;7.80;;
9328;SDS011;4703;48.748;19.142;2022-12-18T13:10:59;10.40;;;8.57;;
9328;SDS011;4703;48.748;19.142;2022-12-18T13:13:52;13.13;;;9.97;;
9328;SDS011;4703;48.748;19.142;2022-12-18T13:16:23;11.60;;;8.70;;
9328;SDS011;4703;48.748;19.142;2022-12-18T13:18:54;11.80;;;9.17;;
9328;SDS011;4703;48.748;19.142;2022-12-18T13:21:27;9.00;;;7.50;;
9328;SDS011;4703;48.748;19.142;2022-12-18T13:23:57;12.07;;;9.17;;
9328;SDS011;4703;48.748;19.142;2022-12-18T13:26:47;9.47;;;7.77;;
9328;SDS011;4703;48.748;19.142;2022-12-18T13:29:40;9.80;;;8.77;;
9328;SDS011;4703;48.748;19.142;2022-12-18T13:32:18;10.83;;;8.70;;
9328;SDS011;4703;48.748;19.142;2022-12-18T13:37:50;6.87;;;6.20;;
9328;SDS011;4703;48.748;19.142;2022-12-18T13:51:54;12.00;;;8.17;;
9328;SDS011;4703;48.748;19.142;2022-12-18T13:57:14;7.97;;;6.90;;
9328;SDS011;4703;48.748;19.142;2022-12-18T14:00:23;7.63;;;6.47;;
9328;SDS011;4703;48.748;19.142;2022-12-18T14:02:55;7.80;;;6.60;;
9328;SDS011;4703;48.748;19.142;2022-12-18T14:08:07;9.27;;;7.50;;
9328;SDS011;4703;48.748;19.142;2022-12-18T14:10:40;8.27;;;7.00;;
9328;SDS011;4703;48.748;19.142;2022-12-18T14:13:21;11.33;;;8.00;;
9328;SDS011;4703;48.748;19.142;2022-12-18T14:15:54;10.10;;;8.60;;
9328;SDS011;4703;48.748;19.142;2022-12-18T14:21:38;18.03;;;13.87;;
9328;SDS011;4703;48.748;19.142;2022-12-18T14:26:45;26.17;;;18.90;;
9328;SDS011;4703;48.748;19.142;2022-12-18T14:29:21;33.93;;;23.43;;
9328;SDS011;4703;48.748;19.142;2022-12-18T14:34:51;33.23;;;24.23;;
9328;SDS011;4703;48.748;19.142;2022-12-18T14:37:21;43.30;;;30.30;;
9328;SDS011;4703;48.748;19.142;2022-12-18T14:39:59;43.93;;;31.30;;
9328;SDS011;4703;48.748;19.142;2022-12-18T14:42:36;40.53;;;29.43;;
9328;SDS011;4703;48.748;19.142;2022-12-18T14:50:39;39.93;;;27.47;;
9328;SDS011;4703;48.748;19.142;2022-12-18T14:53:06;40.93;;;26.43;;
9328;SDS011;4703;48.748;19.142;2022-12-18T14:55:50;40.87;;;27.70;;
9328;SDS011;4703;48.748;19.142;2022-12-18T14:58:17;37.30;;;26.93;;
9328;SDS011;4703;48.748;19.142;2022-12-18T15:00:45;45.57;;;29.30;;
9328;SDS011;4703;48.748;19.142;2022-12-18T15:03:12;48.17;;;31.97;;
9328;SDS011;4703;48.748;19.142;2022-12-18T15:05:47;39.00;;;30.57;;
9328;SDS011;4703;48.748;19.142;2022-12-18T15:08:28;40.80;;;31.20;;
9328;SDS011;4703;48.748;19.142;2022-12-18T15:11:01;42.70;;;28.87;;
9328;SDS011;4703;48.748;19.142;2022-12-18T15:13:34;40.47;;;27.80;;
9328;SDS011;4703;48.748;19.142;2022-12-18T15:16:01;37.70;;;26.70;;
9328;SDS011;4703;48.748;19.142;2022-12-18T15:18:33;36.40;;;26.50;;
9328;SDS011;4703;48.748;19.142;2022-12-18T15:21:08;37.00;;;25.37;;
9328;SDS011;4703;48.748;19.142;2022-12-18T15:26:11;34.70;;;22.63;;
9328;SDS011;4703;48.748;19.142;2022-12-18T15:28:45;33.50;;;23.20;;
9328;SDS011;4703;48.748;19.142;2022-12-18T15:31:33;35.93;;;22.03;;
9328;SDS011;4703;48.748;19.142;2022-12-18T15:34:09;28.70;;;20.93;;
9328;SDS011;4703;48.748;19.142;2022-12-18T15:36:46;27.47;;;20.10;;
9328;SDS011;4703;48.748;19.142;2022-12-18T15:39:14;26.90;;;20.00;;
9328;SDS011;4703;48.748;19.142;2022-12-18T15:41:41;28.40;;;20.90;;
9328;SDS011;4703;48.748;19.142;2022-12-18T15:44:27;34.37;;;20.33;;
9328;SDS011;4703;48.748;19.142;2022-12-18T15:46:54;32.07;;;19.80;;
9328;SDS011;4703;48.748;19.142;2022-12-18T15:49:22;30.37;;;20.37;;
9328;SDS011;4703;48.748;19.142;2022-12-18T15:51:53;28.87;;;20.50;;
9328;SDS011;4703;48.748;19.142;2022-12-18T15:54:24;27.20;;;18.40;;
9328;SDS011;4703;48.748;19.142;2022-12-18T15:57:11;28.90;;;17.43;;
9328;SDS011;4703;48.748;19.142;2022-12-18T15:59:54;24.90;;;16.90;;
9328;SDS011;4703;48.748;19.142;2022-12-18T16:02:25;20.20;;;15.13;;
9328;SDS011;4703;48.748;19.142;2022-12-18T16:04:54;24.93;;;16.07;;
9328;SDS011;4703;48.748;19.142;2022-12-18T16:07:21;22.47;;;13.90;;
9328;SDS011;4703;48.748;19.142;2022-12-18T16:09:51;22.43;;;15.40;;
9328;SDS011;4703;48.748;19.142;2022-12-18T16:12:22;22.20;;;14.33;;
9328;SDS011;4703;48.748;19.142;2022-12-18T16:14:51;20.80;;;13.93;;
9328;SDS011;4703;48.748;19.142;2022-12-18T16:17:18;21.70;;;14.47;;
9328;SDS011;4703;48.748;19.142;2022-12-18T16:19:46;20.57;;;13.87;;
9328;SDS011;4703;48.748;19.142;2022-12-18T16:24:54;21.67;;;14.03;;
9328;SDS011;4703;48.748;19.142;2022-12-18T16:27:22;21.57;;;14.30;;
9328;SDS011;4703;48.748;19.142;2022-12-18T16:29:50;19.27;;;14.57;;
9328;SDS011;4703;48.748;19.142;2022-12-18T16:32:18;18.77;;;13.40;;
9328;SDS011;4703;48.748;19.142;2022-12-18T16:34:48;22.07;;;13.80;;
9328;SDS011;4703;48.748;19.142;2022-12-18T16:37:15;20.80;;;13.23;;
9328;SDS011;4703;48.748;19.142;2022-12-18T16:39:43;18.77;;;13.17;;
9328;SDS011;4703;48.748;19.142;2022-12-18T16:42:12;19.37;;;12.03;;
9328;SDS011;4703;48.748;19.142;2022-12-18T16:44:46;16.40;;;12.07;;
9328;SDS011;4703;48.748;19.142;2022-12-18T16:47:14;16.47;;;10.93;;
9328;SDS011;4703;48.748;19.142;2022-12-18T16:49:42;15.50;;;12.10;;
9328;SDS011;4703;48.748;19.142;2022-12-18T16:52:12;19.10;;;11.03;;
9328;SDS011;4703;48.748;19.142;2022-12-18T16:54:40;17.90;;;12.53;;
9328;SDS011;4703;48.748;19.142;2022-12-18T16:57:08;15.27;;;10.60;;
9328;SDS011;4703;48.748;19.142;2022-12-18T16:59:38;18.50;;;11.83;;
9328;SDS011;4703;48.748;19.142;2022-12-18T17:02:06;18.93;;;13.03;;
9328;SDS011;4703;48.748;19.142;2022-12-18T17:04:49;22.03;;;12.67;;
9328;SDS011;4703;48.748;19.142;2022-12-18T17:07:18;21.60;;;13.80;;
9328;SDS011;4703;48.748;19.142;2022-12-18T17:09:45;18.90;;;12.17;;
9328;SDS011;4703;48.748;19.142;2022-12-18T17:12:12;16.87;;;11.63;;
9328;SDS011;4703;48.748;19.142;2022-12-18T17:14:39;22.80;;;13.20;;
9328;SDS011;4703;48.748;19.142;2022-12-18T17:17:06;17.00;;;11.37;;
9328;SDS011;4703;48.748;19.142;2022-12-18T17:19:50;15.47;;;11.30;;
9328;SDS011;4703;48.748;19.142;2022-12-18T17:22:18;16.73;;;12.87;;
9328;SDS011;4703;48.748;19.142;2022-12-18T17:24:46;15.70;;;11.13;;
9328;SDS011;4703;48.748;19.142;2022-12-18T17:27:13;20.13;;;12.20;;